EGQL - Leuchars
Distance from station: E 5mi, 14km
Updated: 12/15/2017 10:50pm
Clear
Clear
 Wind from W
Wind: W 9 mph , 15 km/h
Temperature: 34°F , 1°C
Wind Chill: 27°F , -3°C
Dew Point: 27°F , -3°C
Humidity: 75%
Barometer: 29.91 inHg , 1013 hPa
Summary: Clear
Visibility: greater than 7 miles , 10 km
2017/12/16 06:50 EGQL 160650Z 27008KT CAVOK 01/M03 Q1013 BLU